Time;durP1;ratioP1;P1;durP2;ratioP2;P2;SDS_P1;SDS_P2;PMS_P1;PMS_P2;Temp;Humidity;BMP_temperature;BMP_pressure;BME280_temperature;BME280_humidity;BME280_pressure;Samples;Min_cycle;Max_cycle;Signal;HPM_P1;HPM_P2
2022/05/09 00:01:31;;;;;;;15.65;3.30;;;;;;;;;;5015312;28;20641;-61
2022/05/09 00:03:57;;;;;;;12.85;3.13;;;;;;;;;;5016450;28;20218;-61
2022/05/09 00:06:24;;;;;;;15.13;3.33;;;;;;;;;;5040700;28;20219;-61
2022/05/09 00:08:49;;;;;;;17.52;3.88;;;;;;;;;;5026194;28;20590;-61
2022/05/09 00:11:14;;;;;;;12.50;3.67;;;;;;;;;;5023765;28;20686;-61
2022/05/09 00:13:40;;;;;;;13.57;3.50;;;;;;;;;;5039530;28;20760;-61
2022/05/09 00:16:05;;;;;;;15.40;3.72;;;;;;;;;;5052444;28;20294;-61
2022/05/09 00:18:30;;;;;;;13.70;3.55;;;;;;;;;;5052534;28;20215;-61
2022/05/09 00:20:56;;;;;;;11.68;3.40;;;;;;;;;;5053311;28;20226;-61
2022/05/09 00:23:21;;;;;;;13.55;3.05;;;;;;;;;;5052054;28;20568;-61
2022/05/09 00:25:46;;;;;;;15.27;3.22;;;;;;;;;;5053649;28;20209;-61
2022/05/09 00:28:11;;;;;;;14.40;3.63;;;;;;;;;;5052299;28;20685;-61
2022/05/09 00:30:37;;;;;;;15.52;4.00;;;;;;;;;;5052495;28;20291;-61
2022/05/09 00:33:02;;;;;;;12.38;3.55;;;;;;;;;;5052715;28;20321;-61
2022/05/09 00:35:27;;;;;;;15.05;4.07;;;;;;;;;;5052932;28;20199;-61
2022/05/09 00:37:53;;;;;;;13.25;3.70;;;;;;;;;;5051943;28;20218;-61
2022/05/09 00:40:18;;;;;;;12.82;3.20;;;;;;;;;;5052538;28;20241;-61
2022/05/09 00:42:45;;;;;;;14.38;3.90;;;;;;;;;;5053048;28;20713;-61
2022/05/09 00:45:11;;;;;;;14.15;3.67;;;;;;;;;;5051937;28;20215;-61
2022/05/09 00:47:36;;;;;;;13.95;3.65;;;;;;;;;;5052374;28;20221;-61
2022/05/09 00:50:02;;;;;;;17.02;3.83;;;;;;;;;;5052014;28;20203;-61
2022/05/09 00:52:36;;;;;;;14.20;3.45;;;;;;;;;;5034433;28;20658;-61
2022/05/09 00:55:10;;;;;;;13.52;3.50;;;;;;;;;;5052187;28;20238;-61
2022/05/09 00:57:37;;;;;;;12.63;3.42;;;;;;;;;;5052361;28;20215;-61
2022/05/09 01:00:04;;;;;;;12.77;3.90;;;;;;;;;;5051370;28;20203;-61
2022/05/09 01:02:30;;;;;;;14.35;3.22;;;;;;;;;;5052803;28;20284;-61
2022/05/09 01:04:57;;;;;;;17.00;3.58;;;;;;;;;;5034614;28;20215;-61
2022/05/09 01:07:22;;;;;;;11.10;3.55;;;;;;;;;;5051080;28;20234;-61
2022/05/09 01:09:48;;;;;;;15.20;3.95;;;;;;;;;;5052505;28;20242;-61
2022/05/09 01:12:14;;;;;;;13.18;3.42;;;;;;;;;;5048650;28;20241;-61
2022/05/09 01:14:39;;;;;;;14.50;3.88;;;;;;;;;;5032435;28;20307;-61
2022/05/09 01:17:04;;;;;;;14.00;3.70;;;;;;;;;;5037988;28;20211;-61
2022/05/09 01:19:31;;;;;;;15.88;3.78;;;;;;;;;;5049651;28;20252;-61
2022/05/09 01:21:57;;;;;;;12.73;3.30;;;;;;;;;;5029985;28;20551;-62
2022/05/09 01:24:22;;;;;;;17.52;4.40;;;;;;;;;;5028339;28;21050;-61
2022/05/09 01:26:48;;;;;;;11.38;3.67;;;;;;;;;;5026909;28;20702;-61
2022/05/09 01:29:17;;;;;;;17.98;4.78;;;;;;;;;;5022738;28;20220;-61
2022/05/09 01:31:43;;;;;;;13.63;3.83;;;;;;;;;;5016038;28;20219;-61
2022/05/09 01:34:09;;;;;;;16.10;4.05;;;;;;;;;;5032806;28;20520;-61
2022/05/09 01:36:34;;;;;;;15.20;4.40;;;;;;;;;;5015392;28;20484;-61
2022/05/09 01:39:00;;;;;;;14.02;3.83;;;;;;;;;;5004733;28;20223;-61
2022/05/09 01:41:26;;;;;;;12.27;3.60;;;;;;;;;;5040975;28;20269;-61
2022/05/09 01:43:52;;;;;;;13.57;3.42;;;;;;;;;;5024343;28;20227;-61
2022/05/09 01:46:19;;;;;;;11.32;3.60;;;;;;;;;;5023735;28;20292;-61
2022/05/09 01:51:28;;;;;;;15.13;3.85;;;;;;;;;;5022180;28;20214;-60
2022/05/09 01:53:53;;;;;;;11.68;3.97;;;;;;;;;;5015669;28;20594;-61
2022/05/09 01:56:20;;;;;;;15.13;4.20;;;;;;;;;;4995129;28;20303;-61
2022/05/09 01:58:45;;;;;;;12.15;3.60;;;;;;;;;;5000299;28;20211;-61
2022/05/09 02:01:10;;;;;;;10.10;3.60;;;;;;;;;;5020146;28;20214;-61
2022/05/09 02:03:36;;;;;;;15.88;4.07;;;;;;;;;;5020958;28;20269;-61
2022/05/09 02:06:01;;;;;;;15.77;4.10;;;;;;;;;;5021773;28;21225;-61
2022/05/09 02:08:26;;;;;;;15.35;4.03;;;;;;;;;;5027525;28;20227;-61
2022/05/09 02:10:51;;;;;;;14.55;3.78;;;;;;;;;;5022310;28;20210;-61
2022/05/09 02:13:17;;;;;;;16.40;4.07;;;;;;;;;;5021683;28;20872;-61
2022/05/09 02:15:42;;;;;;;11.25;3.85;;;;;;;;;;5017994;28;20219;-61
2022/05/09 02:18:07;;;;;;;14.50;4.25;;;;;;;;;;5014304;28;20802;-61
2022/05/09 02:20:32;;;;;;;17.58;4.00;;;;;;;;;;5014559;28;20204;-61
2022/05/09 02:22:58;;;;;;;13.52;3.65;;;;;;;;;;5016433;28;20243;-61
2022/05/09 02:25:29;;;;;;;15.40;4.32;;;;;;;;;;5022422;28;20208;-61
2022/05/09 02:27:56;;;;;;;13.77;3.88;;;;;;;;;;5036092;28;20216;-61
2022/05/09 02:30:21;;;;;;;14.32;4.40;;;;;;;;;;5031509;28;20796;-62
2022/05/09 02:32:46;;;;;;;15.30;4.28;;;;;;;;;;5025740;28;20211;-61
2022/05/09 02:35:12;;;;;;;12.88;3.72;;;;;;;;;;5007516;28;20311;-64
2022/05/09 02:37:37;;;;;;;11.65;4.03;;;;;;;;;;5025081;28;20216;-64
2022/05/09 02:40:03;;;;;;;14.63;3.90;;;;;;;;;;5017839;28;20219;-63
2022/05/09 02:42:28;;;;;;;15.65;4.13;;;;;;;;;;5037000;28;20210;-64
2022/05/09 02:44:54;;;;;;;11.57;3.70;;;;;;;;;;5037574;28;20297;-64
2022/05/09 02:47:20;;;;;;;14.75;4.40;;;;;;;;;;5040907;28;20207;-64
2022/05/09 02:49:45;;;;;;;15.77;4.03;;;;;;;;;;5025901;28;20254;-64
2022/05/09 02:52:11;;;;;;;14.18;4.38;;;;;;;;;;5024323;28;20207;-64
2022/05/09 02:54:36;;;;;;;16.30;4.38;;;;;;;;;;5025309;28;20208;-64
2022/05/09 02:57:02;;;;;;;12.27;4.40;;;;;;;;;;5025905;28;20227;-64
2022/05/09 02:59:27;;;;;;;12.07;4.13;;;;;;;;;;5025615;28;20208;-63
2022/05/09 03:01:53;;;;;;;14.95;4.40;;;;;;;;;;5019645;28;20773;-64
2022/05/09 03:07:02;;;;;;;21.40;5.40;;;;;;;;;;5033697;28;20634;-63
2022/05/09 03:09:27;;;;;;;16.10;4.35;;;;;;;;;;5008750;28;20211;-64
2022/05/09 03:11:53;;;;;;;15.05;3.75;;;;;;;;;;5024296;28;20204;-64
2022/05/09 03:14:18;;;;;;;17.88;4.65;;;;;;;;;;5024978;28;20227;-64
2022/05/09 03:16:43;;;;;;;17.23;4.43;;;;;;;;;;5024776;28;20752;-64
2022/05/09 03:19:08;;;;;;;19.23;4.80;;;;;;;;;;5026138;28;20211;-64
2022/05/09 03:21:34;;;;;;;13.13;4.13;;;;;;;;;;5025206;28;20302;-64
2022/05/09 03:23:59;;;;;;;12.52;3.97;;;;;;;;;;5020573;28;20227;-65
2022/05/09 03:26:24;;;;;;;12.57;4.43;;;;;;;;;;5015624;28;21072;-65
2022/05/09 03:28:50;;;;;;;12.55;4.75;;;;;;;;;;5018564;28;20212;-64
2022/05/09 03:31:15;;;;;;;15.38;4.05;;;;;;;;;;5019978;28;20226;-64
2022/05/09 03:33:40;;;;;;;18.02;4.68;;;;;;;;;;5024184;28;20203;-65
2022/05/09 03:36:06;;;;;;;12.45;4.47;;;;;;;;;;5043197;28;20227;-64
2022/05/09 03:38:31;;;;;;;18.15;4.70;;;;;;;;;;5030040;28;20227;-64
2022/05/09 03:40:59;;;;;;;16.23;4.43;;;;;;;;;;5024159;28;20257;-64
2022/05/09 03:43:24;;;;;;;16.80;4.45;;;;;;;;;;5022082;28;20615;-63
2022/05/09 03:45:50;;;;;;;15.70;4.63;;;;;;;;;;5022929;28;20212;-63
2022/05/09 03:48:15;;;;;;;11.30;4.13;;;;;;;;;;5004054;28;20251;-64
2022/05/09 03:50:40;;;;;;;12.55;4.10;;;;;;;;;;4997096;28;20223;-64
2022/05/09 03:53:06;;;;;;;14.38;4.90;;;;;;;;;;4997170;28;20239;-64
2022/05/09 03:55:33;;;;;;;14.73;4.55;;;;;;;;;;5004240;28;20431;-65
2022/05/09 03:57:58;;;;;;;16.88;5.20;;;;;;;;;;5005816;28;20226;-65
2022/05/09 04:00:24;;;;;;;16.92;4.47;;;;;;;;;;5004339;28;20322;-64
2022/05/09 04:02:50;;;;;;;13.60;4.53;;;;;;;;;;5004271;28;20319;-64
2022/05/09 04:05:17;;;;;;;11.90;4.50;;;;;;;;;;5003774;28;20303;-64
2022/05/09 04:07:43;;;;;;;14.38;4.30;;;;;;;;;;5005388;28;20220;-64
2022/05/09 04:10:09;;;;;;;15.63;4.28;;;;;;;;;;4997405;28;20231;-65
2022/05/09 04:12:34;;;;;;;10.90;3.67;;;;;;;;;;5015472;28;20638;-63
2022/05/09 04:17:44;;;;;;;15.52;4.63;;;;;;;;;;5034758;28;20222;-63
2022/05/09 04:20:09;;;;;;;17.30;4.43;;;;;;;;;;5006493;28;20611;-63
2022/05/09 04:22:35;;;;;;;15.75;4.45;;;;;;;;;;5016074;28;20216;-63
2022/05/09 04:25:00;;;;;;;14.68;4.18;;;;;;;;;;5023450;28;20274;-63
2022/05/09 04:27:28;;;;;;;15.65;4.80;;;;;;;;;;5024990;28;20207;-63
2022/05/09 04:29:55;;;;;;;10.60;4.00;;;;;;;;;;5025713;28;20714;-63
2022/05/09 04:32:20;;;;;;;13.18;4.60;;;;;;;;;;5037848;28;20215;-63
2022/05/09 04:34:45;;;;;;;12.38;4.55;;;;;;;;;;5034970;28;20572;-63
2022/05/09 04:37:11;;;;;;;11.23;3.80;;;;;;;;;;5031016;28;20586;-63
2022/05/09 04:39:36;;;;;;;13.95;4.25;;;;;;;;;;5019716;28;20219;-63
2022/05/09 04:42:01;;;;;;;12.85;4.10;;;;;;;;;;5023182;28;20212;-63
2022/05/09 04:44:27;;;;;;;15.63;4.25;;;;;;;;;;5022393;28;20222;-63
2022/05/09 04:46:52;;;;;;;13.50;4.35;;;;;;;;;;5023341;28;20697;-63
2022/05/09 04:49:18;;;;;;;18.77;4.65;;;;;;;;;;5022879;28;20219;-63
2022/05/09 04:51:43;;;;;;;13.73;4.10;;;;;;;;;;5022293;28;20342;-63
2022/05/09 04:54:08;;;;;;;16.70;5.03;;;;;;;;;;5020862;28;20200;-63
2022/05/09 04:56:34;;;;;;;14.18;4.25;;;;;;;;;;5010862;28;20236;-63
2022/05/09 04:58:59;;;;;;;11.07;4.00;;;;;;;;;;5015162;28;20219;-63
2022/05/09 05:01:24;;;;;;;12.13;4.20;;;;;;;;;;5016166;28;20257;-63
2022/05/09 05:03:49;;;;;;;11.63;4.40;;;;;;;;;;5023196;28;20714;-61
2022/05/09 05:06:15;;;;;;;17.25;4.72;;;;;;;;;;5021059;28;20255;-65
2022/05/09 05:08:40;;;;;;;17.13;4.83;;;;;;;;;;5023119;28;20438;-65
2022/05/09 05:11:05;;;;;;;13.27;4.60;;;;;;;;;;5022045;28;20313;-65
2022/05/09 05:13:33;;;;;;;14.77;4.70;;;;;;;;;;5022425;28;20657;-65
2022/05/09 05:15:58;;;;;;;14.15;4.63;;;;;;;;;;5023327;28;20203;-68
2022/05/09 05:18:24;;;;;;;14.05;4.35;;;;;;;;;;4999243;28;20641;-67
2022/05/09 05:20:49;;;;;;;14.35;4.30;;;;;;;;;;5016039;28;20212;-64
2022/05/09 05:23:14;;;;;;;15.10;4.53;;;;;;;;;;5014980;28;20254;-65
2022/05/09 05:25:41;;;;;;;13.32;4.40;;;;;;;;;;5032400;28;20295;-64
2022/05/09 05:28:07;;;;;;;15.68;4.65;;;;;;;;;;5029093;28;20584;-63
2022/05/09 05:30:32;;;;;;;13.48;4.32;;;;;;;;;;5030462;28;20206;-63
2022/05/09 05:32:58;;;;;;;13.93;4.55;;;;;;;;;;5051136;28;20202;-66
2022/05/09 05:35:23;;;;;;;17.63;4.75;;;;;;;;;;5051192;28;20298;-70
2022/05/09 05:37:49;;;;;;;15.32;4.72;;;;;;;;;;5052174;28;20243;-66
2022/05/09 05:40:14;;;;;;;15.50;4.88;;;;;;;;;;5047354;28;20210;-65
2022/05/09 05:42:40;;;;;;;9.90;4.35;;;;;;;;;;5049825;28;22165;-63
2022/05/09 05:45:06;;;;;;;12.43;5.22;;;;;;;;;;5051292;28;20294;-64
2022/05/09 05:47:31;;;;;;;15.05;5.07;;;;;;;;;;5050987;28;20217;-65
2022/05/09 05:49:57;;;;;;;14.68;4.85;;;;;;;;;;5051670;28;20345;-65
2022/05/09 05:52:22;;;;;;;13.45;4.80;;;;;;;;;;5051310;28;20211;-64
2022/05/09 05:54:47;;;;;;;16.55;5.20;;;;;;;;;;5050839;28;20234;-64
2022/05/09 05:57:21;;;;;;;13.25;4.80;;;;;;;;;;5050680;28;20682;-63
2022/05/09 05:59:47;;;;;;;14.60;4.97;;;;;;;;;;5052061;28;20777;-66
2022/05/09 06:02:13;;;;;;;15.00;5.03;;;;;;;;;;5042148;28;20214;-65
2022/05/09 06:04:39;;;;;;;18.73;4.90;;;;;;;;;;5052410;28;20305;-65
2022/05/09 06:07:04;;;;;;;16.85;4.75;;;;;;;;;;5035641;28;20211;-66
2022/05/09 06:09:29;;;;;;;14.00;4.90;;;;;;;;;;5035325;28;20302;-65
2022/05/09 06:11:54;;;;;;;15.90;5.03;;;;;;;;;;5024296;28;20209;-65
2022/05/09 06:14:20;;;;;;;16.90;5.43;;;;;;;;;;5045821;28;20224;-67
2022/05/09 06:16:45;;;;;;;14.40;4.55;;;;;;;;;;5015334;28;20227;-65
2022/05/09 06:19:10;;;;;;;15.15;5.22;;;;;;;;;;5019888;28;20690;-69
2022/05/09 06:21:37;;;;;;;16.63;4.65;;;;;;;;;;5031304;28;20222;-67
2022/05/09 06:24:04;;;;;;;12.73;4.63;;;;;;;;;;5034094;28;20231;-65
2022/05/09 06:26:29;;;;;;;11.35;4.50;;;;;;;;;;5020739;28;20215;-65
2022/05/09 06:28:55;;;;;;;18.55;4.95;;;;;;;;;;5044627;28;20211;-65
2022/05/09 06:31:20;;;;;;;11.85;4.28;;;;;;;;;;5054599;28;20207;-65
2022/05/09 06:33:45;;;;;;;15.57;4.90;;;;;;;;;;5055580;28;20242;-65
2022/05/09 06:36:10;;;;;;;13.13;4.72;;;;;;;;;;5054101;28;20211;-65
2022/05/09 06:38:36;;;;;;;10.25;3.88;;;;;;;;;;5055314;28;20249;-65
2022/05/09 06:41:01;;;;;;;16.10;4.75;;;;;;;;;;5055177;28;20213;-63
2022/05/09 06:43:27;;;;;;;10.82;4.28;;;;;;;;;;5054477;28;20231;-64
2022/05/09 06:45:52;;;;;;;12.75;4.45;;;;;;;;;;5055421;28;20627;-63
2022/05/09 06:48:18;;;;;;;14.25;4.60;;;;;;;;;;5054601;28;20609;-64
2022/05/09 06:50:43;;;;;;;17.55;4.97;;;;;;;;;;5054580;28;20298;-64
2022/05/09 06:53:09;;;;;;;16.85;5.25;;;;;;;;;;5054859;28;20218;-63
2022/05/09 06:55:35;;;;;;;14.57;4.93;;;;;;;;;;5054444;28;20587;-63
2022/05/09 06:58:00;;;;;;;14.55;4.70;;;;;;;;;;5050783;28;20214;-62
2022/05/09 07:00:26;;;;;;;12.77;4.50;;;;;;;;;;5035330;28;20207;-62
2022/05/09 07:02:51;;;;;;;11.95;4.70;;;;;;;;;;5053449;28;20292;-62
2022/05/09 07:05:17;;;;;;;11.93;4.13;;;;;;;;;;5052418;28;20215;-62
2022/05/09 07:07:43;;;;;;;12.25;4.32;;;;;;;;;;5053165;28;20226;-62
2022/05/09 07:10:09;;;;;;;11.85;4.60;;;;;;;;;;5053119;28;20215;-62
2022/05/09 07:12:41;;;;;;;15.75;4.72;;;;;;;;;;5052031;28;20537;-62
2022/05/09 07:15:06;;;;;;;12.55;4.45;;;;;;;;;;5053332;28;20223;-62
2022/05/09 07:17:32;;;;;;;15.60;5.30;;;;;;;;;;5053353;28;20257;-62
2022/05/09 07:19:57;;;;;;;16.05;5.07;;;;;;;;;;5052915;28;20215;-62
2022/05/09 07:22:22;;;;;;;11.52;4.38;;;;;;;;;;5053355;28;20273;-62
2022/05/09 07:24:48;;;;;;;15.50;4.22;;;;;;;;;;5053584;28;20211;-62
2022/05/09 07:27:13;;;;;;;11.43;4.63;;;;;;;;;;5051987;28;20707;-62
2022/05/09 07:29:38;;;;;;;11.50;4.68;;;;;;;;;;5052640;28;20211;-62
2022/05/09 07:32:04;;;;;;;15.88;4.90;;;;;;;;;;5052242;28;20284;-62
2022/05/09 07:34:29;;;;;;;10.40;4.20;;;;;;;;;;5053426;28;20211;-62
2022/05/09 07:36:54;;;;;;;15.45;4.70;;;;;;;;;;5041522;28;20204;-62
2022/05/09 07:39:20;;;;;;;13.67;4.60;;;;;;;;;;5042901;28;20464;-63
2022/05/09 07:41:45;;;;;;;14.57;4.82;;;;;;;;;;5052832;28;20218;-65
2022/05/09 07:44:10;;;;;;;12.00;4.70;;;;;;;;;;5052394;28;20323;-66
2022/05/09 07:46:35;;;;;;;14.65;4.97;;;;;;;;;;5052194;28;20218;-64
2022/05/09 07:49:01;;;;;;;12.70;4.80;;;;;;;;;;5052475;28;20276;-63
2022/05/09 07:51:26;;;;;;;12.57;4.70;;;;;;;;;;5053412;28;20242;-63
2022/05/09 07:53:51;;;;;;;12.32;4.03;;;;;;;;;;5052421;28;20211;-64
2022/05/09 07:56:17;;;;;;;11.23;4.40;;;;;;;;;;5014093;28;1122137;-64
2022/05/09 07:58:43;;;;;;;13.27;4.75;;;;;;;;;;5053282;28;20211;-63
2022/05/09 08:01:08;;;;;;;13.07;4.57;;;;;;;;;;5052476;28;20211;-63
2022/05/09 08:03:34;;;;;;;12.20;5.07;;;;;;;;;;5054211;28;20550;-63
2022/05/09 08:06:00;;;;;;;14.93;4.80;;;;;;;;;;5054094;28;20294;-64
2022/05/09 08:08:28;;;;;;;10.45;4.60;;;;;;;;;;5052070;28;20676;-64
2022/05/09 08:10:54;;;;;;;12.65;4.50;;;;;;;;;;5053480;28;20203;-63
2022/05/09 08:13:19;;;;;;;13.88;4.60;;;;;;;;;;5035594;28;20233;-63
2022/05/09 08:15:45;;;;;;;11.15;4.30;;;;;;;;;;5052384;28;20222;-63
2022/05/09 08:18:11;;;;;;;13.27;4.88;;;;;;;;;;5053212;28;20215;-64
2022/05/09 08:20:37;;;;;;;13.23;4.35;;;;;;;;;;5042439;28;20574;-63
2022/05/09 08:23:04;;;;;;;9.85;4.03;;;;;;;;;;5051538;28;20273;-62
2022/05/09 08:25:30;;;;;;;13.23;4.60;;;;;;;;;;5053145;28;20215;-62
2022/05/09 08:27:55;;;;;;;12.63;4.15;;;;;;;;;;5053109;28;20252;-62
2022/05/09 08:30:21;;;;;;;12.32;4.20;;;;;;;;;;5051172;28;20221;-63
2022/05/09 08:32:46;;;;;;;11.75;4.30;;;;;;;;;;5038726;28;20203;-63
2022/05/09 08:35:13;;;;;;;12.73;4.45;;;;;;;;;;5051008;28;20253;-63
2022/05/09 08:37:38;;;;;;;12.95;4.00;;;;;;;;;;5049691;28;20237;-63
2022/05/09 08:40:04;;;;;;;13.75;4.55;;;;;;;;;;5036425;28;20617;-63
2022/05/09 08:42:33;;;;;;;10.57;4.40;;;;;;;;;;5032391;28;20928;-63
2022/05/09 08:45:19;;;;;;;11.93;4.22;;;;;;;;;;5032032;28;20222;-63
2022/05/09 08:47:49;;;;;;;11.45;3.88;;;;;;;;;;5052718;28;20215;-63
2022/05/09 08:50:17;;;;;;;9.88;3.50;;;;;;;;;;5052686;28;20306;-62
2022/05/09 08:52:55;;;;;;;12.20;4.57;;;;;;;;;;5035379;28;20209;-62
2022/05/09 08:55:24;;;;;;;11.40;4.05;;;;;;;;;;5052210;28;20241;-62
2022/05/09 08:57:52;;;;;;;13.43;4.18;;;;;;;;;;5018313;28;20207;-62
2022/05/09 09:00:18;;;;;;;14.95;4.80;;;;;;;;;;5041375;28;20682;-62
2022/05/09 09:02:48;;;;;;;12.73;4.22;;;;;;;;;;5034896;28;20237;-62
2022/05/09 09:05:15;;;;;;;13.82;4.10;;;;;;;;;;5051702;28;20686;-62
2022/05/09 09:07:46;;;;;;;9.88;3.60;;;;;;;;;;5035230;28;20316;-62
2022/05/09 09:10:25;;;;;;;12.50;4.00;;;;;;;;;;5052082;28;20219;-62
2022/05/09 09:12:59;;;;;;;10.57;3.80;;;;;;;;;;5035011;28;20206;-64
2022/05/09 09:15:28;;;;;;;9.85;3.75;;;;;;;;;;5034378;28;20199;-62
2022/05/09 09:17:58;;;;;;;14.75;4.10;;;;;;;;;;5052060;28;20210;-61
2022/05/09 09:20:32;;;;;;;13.98;4.78;;;;;;;;;;5052732;28;20211;-62
2022/05/09 09:22:59;;;;;;;11.32;4.18;;;;;;;;;;5034871;28;20241;-61
2022/05/09 09:25:31;;;;;;;10.88;4.30;;;;;;;;;;5050992;28;20207;-61
2022/05/09 09:28:02;;;;;;;13.32;4.00;;;;;;;;;;5034721;28;20231;-62
2022/05/09 09:30:29;;;;;;;10.27;3.75;;;;;;;;;;5051853;28;20207;-61
2022/05/09 09:32:57;;;;;;;12.25;3.80;;;;;;;;;;5051330;28;20701;-62
2022/05/09 09:35:34;;;;;;;12.05;3.70;;;;;;;;;;5051823;28;20238;-62
2022/05/09 09:38:13;;;;;;;10.32;3.35;;;;;;;;;;5052604;28;20708;-61
2022/05/09 09:40:38;;;;;;;12.30;4.05;;;;;;;;;;5030027;28;20214;-63
2022/05/09 09:43:04;;;;;;;12.10;4.00;;;;;;;;;;5048375;28;20227;-63
2022/05/09 09:45:30;;;;;;;11.43;3.80;;;;;;;;;;5052353;28;20207;-61
2022/05/09 09:48:05;;;;;;;12.88;3.30;;;;;;;;;;5051490;28;20206;-61
2022/05/09 09:50:30;;;;;;;11.25;3.38;;;;;;;;;;5051983;28;20230;-61
2022/05/09 09:52:56;;;;;;;10.48;3.55;;;;;;;;;;5051154;28;20246;-63
2022/05/09 09:55:23;;;;;;;10.77;3.47;;;;;;;;;;5051197;28;20276;-62
2022/05/09 09:57:48;;;;;;;12.80;3.55;;;;;;;;;;5052059;28;20214;-63
2022/05/09 10:00:15;;;;;;;10.43;3.72;;;;;;;;;;5050998;28;20215;-62
2022/05/09 10:02:40;;;;;;;10.52;3.47;;;;;;;;;;5051456;28;20222;-62
2022/05/09 10:05:11;;;;;;;11.13;3.42;;;;;;;;;;5051732;28;20203;-62
2022/05/09 10:07:39;;;;;;;9.18;3.30;;;;;;;;;;5051133;28;20219;-62
2022/05/09 10:10:14;;;;;;;10.05;3.30;;;;;;;;;;5051701;28;20214;-62
2022/05/09 10:12:40;;;;;;;12.30;3.28;;;;;;;;;;5052140;28;20217;-62
2022/05/09 10:15:23;;;;;;;11.55;3.60;;;;;;;;;;5050674;28;20214;-62
2022/05/09 10:17:48;;;;;;;7.40;2.95;;;;;;;;;;5051846;28;20219;-63
2022/05/09 10:20:23;;;;;;;9.32;3.25;;;;;;;;;;5051839;28;20217;-62
2022/05/09 10:25:33;;;;;;;7.40;3.05;;;;;;;;;;5051389;28;20357;-61
2022/05/09 10:28:04;;;;;;;10.80;3.30;;;;;;;;;;5051056;28;20199;-62
2022/05/09 10:30:32;;;;;;;7.90;3.00;;;;;;;;;;5051747;28;20250;-62
2022/05/09 10:32:59;;;;;;;9.73;3.28;;;;;;;;;;5054393;28;20222;-62
2022/05/09 10:35:25;;;;;;;8.85;3.15;;;;;;;;;;5032792;28;20246;-61
2022/05/09 10:37:54;;;;;;;8.45;3.08;;;;;;;;;;5033462;28;20227;-62
2022/05/09 10:40:26;;;;;;;10.55;3.25;;;;;;;;;;5051146;28;20214;-62
2022/05/09 10:42:55;;;;;;;11.43;3.70;;;;;;;;;;5033007;28;20211;-62
2022/05/09 10:45:21;;;;;;;9.93;3.63;;;;;;;;;;5051108;28;20219;-62
2022/05/09 10:47:48;;;;;;;7.15;3.00;;;;;;;;;;5036682;28;20576;-61
2022/05/09 10:50:22;;;;;;;9.38;3.28;;;;;;;;;;5036369;28;20282;-62
2022/05/09 10:53:03;;;;;;;10.18;3.38;;;;;;;;;;5037391;28;20272;-62
2022/05/09 10:55:44;;;;;;;10.40;3.35;;;;;;;;;;5029879;28;20228;-62
2022/05/09 10:58:12;;;;;;;8.20;3.70;;;;;;;;;;5034117;28;20284;-62
2022/05/09 11:00:40;;;;;;;8.20;2.90;;;;;;;;;;5014543;28;20208;-62
2022/05/09 11:03:12;;;;;;;7.68;2.88;;;;;;;;;;5022090;28;20232;-62
2022/05/09 11:05:57;;;;;;;11.73;3.58;;;;;;;;;;5037000;28;20542;-61
2022/05/09 11:08:28;;;;;;;9.13;2.70;;;;;;;;;;5054410;28;20210;-61
2022/05/09 11:11:09;;;;;;;9.95;3.05;;;;;;;;;;5036427;28;20218;-62
2022/05/09 11:13:48;;;;;;;9.07;3.10;;;;;;;;;;5036217;28;20211;-62
2022/05/09 11:16:20;;;;;;;9.45;2.90;;;;;;;;;;5049393;28;20290;-62
2022/05/09 11:18:59;;;;;;;8.80;3.20;;;;;;;;;;5036166;28;20211;-61
2022/05/09 11:21:45;;;;;;;13.27;3.17;;;;;;;;;;5054252;28;20231;-62
2022/05/09 11:24:10;;;;;;;8.02;2.80;;;;;;;;;;5052817;28;20376;-61
2022/05/09 11:26:40;;;;;;;10.60;3.33;;;;;;;;;;5054741;28;20662;-61
2022/05/09 11:29:14;;;;;;;10.70;3.33;;;;;;;;;;5036276;28;20211;-61
2022/05/09 11:31:43;;;;;;;10.82;3.78;;;;;;;;;;5036053;28;20214;-61
2022/05/09 11:34:08;;;;;;;8.88;3.03;;;;;;;;;;5054050;28;20218;-62
2022/05/09 11:36:44;;;;;;;9.43;3.17;;;;;;;;;;5046154;28;20215;-62
2022/05/09 11:39:13;;;;;;;10.85;3.70;;;;;;;;;;5052258;28;20218;-62
2022/05/09 11:41:41;;;;;;;9.07;3.30;;;;;;;;;;5033673;28;20207;-63
2022/05/09 11:44:13;;;;;;;10.43;3.00;;;;;;;;;;5017264;28;20594;-62
2022/05/09 11:46:42;;;;;;;9.70;3.25;;;;;;;;;;5035688;28;20692;-61
2022/05/09 11:49:08;;;;;;;10.98;3.50;;;;;;;;;;5053515;28;20203;-61
2022/05/09 11:51:46;;;;;;;8.25;3.13;;;;;;;;;;5054387;28;20233;-62
2022/05/09 11:54:14;;;;;;;10.85;3.33;;;;;;;;;;5052487;28;20597;-62
2022/05/09 11:56:40;;;;;;;8.98;2.85;;;;;;;;;;5036039;28;20681;-62
2022/05/09 11:59:05;;;;;;;11.02;3.20;;;;;;;;;;5051984;28;20285;-63
2022/05/09 12:01:51;;;;;;;11.73;3.15;;;;;;;;;;5034130;28;20250;-63
2022/05/09 12:04:29;;;;;;;8.25;3.45;;;;;;;;;;5052922;28;20292;-62
2022/05/09 12:06:54;;;;;;;10.25;3.03;;;;;;;;;;5053008;28;20282;-63
2022/05/09 12:09:39;;;;;;;12.82;3.50;;;;;;;;;;5053437;28;20211;-63
2022/05/09 12:12:05;;;;;;;8.13;2.50;;;;;;;;;;5053010;28;20206;-63
2022/05/09 12:14:42;;;;;;;12.23;3.08;;;;;;;;;;5052821;28;20215;-61
2022/05/09 12:17:18;;;;;;;10.60;2.78;;;;;;;;;;5047067;28;20712;-62
2022/05/09 12:19:43;;;;;;;8.80;3.17;;;;;;;;;;5053466;28;20665;-63
2022/05/09 12:22:33;;;;;;;7.95;2.63;;;;;;;;;;5052626;28;20352;-63
2022/05/09 12:24:59;;;;;;;9.30;2.67;;;;;;;;;;5052955;28;20219;-63
2022/05/09 12:27:41;;;;;;;6.47;2.40;;;;;;;;;;5052179;28;20680;-63
2022/05/09 12:30:13;;;;;;;8.27;2.90;;;;;;;;;;5034224;28;20272;-62
2022/05/09 12:32:38;;;;;;;7.95;2.08;;;;;;;;;;5031557;28;20242;-61
2022/05/09 12:35:07;;;;;;;7.22;2.15;;;;;;;;;;5036469;28;20253;-62
2022/05/09 12:37:41;;;;;;;5.60;1.70;;;;;;;;;;5050069;28;20207;-62
2022/05/09 12:40:17;;;;;;;6.70;1.95;;;;;;;;;;5032785;28;20570;-62
2022/05/09 12:42:49;;;;;;;7.90;1.80;;;;;;;;;;5045889;28;20571;-62
2022/05/09 12:45:14;;;;;;;9.48;2.38;;;;;;;;;;5035067;28;20711;-63
2022/05/09 12:47:40;;;;;;;10.73;2.40;;;;;;;;;;5021963;28;20207;-63
2022/05/09 12:50:07;;;;;;;8.20;1.90;;;;;;;;;;5032194;28;20208;-62
2022/05/09 12:52:34;;;;;;;6.40;2.10;;;;;;;;;;5031108;28;20211;-62
2022/05/09 12:57:44;;;;;;;9.45;2.15;;;;;;;;;;5022732;28;20231;-63
2022/05/09 13:00:15;;;;;;;5.55;2.03;;;;;;;;;;5031275;28;20204;-63
2022/05/09 13:02:40;;;;;;;7.18;2.53;;;;;;;;;;5026978;28;20744;-62
2022/05/09 13:05:06;;;;;;;6.70;2.50;;;;;;;;;;5035847;28;20245;-62
2022/05/09 13:07:31;;;;;;;7.10;2.25;;;;;;;;;;5040763;28;20203;-63
2022/05/09 13:09:57;;;;;;;7.80;2.47;;;;;;;;;;5031809;28;20215;-62
2022/05/09 13:12:25;;;;;;;5.88;2.45;;;;;;;;;;5051131;28;20203;-64
2022/05/09 13:14:53;;;;;;;6.50;2.20;;;;;;;;;;5034566;28;20269;-62
2022/05/09 13:17:24;;;;;;;5.72;2.28;;;;;;;;;;5032415;28;20237;-62
2022/05/09 13:19:50;;;;;;;7.03;2.85;;;;;;;;;;5049466;28;20265;-61
2022/05/09 13:22:20;;;;;;;6.45;2.40;;;;;;;;;;5051933;28;20272;-64
2022/05/09 13:24:45;;;;;;;5.25;1.95;;;;;;;;;;5033907;28;20250;-63
2022/05/09 13:27:10;;;;;;;8.38;2.53;;;;;;;;;;5051770;28;20239;-64
2022/05/09 13:29:38;;;;;;;6.10;2.40;;;;;;;;;;5052478;28;20207;-64
2022/05/09 13:32:03;;;;;;;5.80;2.30;;;;;;;;;;5033648;28;20207;-63
2022/05/09 13:34:31;;;;;;;8.98;2.75;;;;;;;;;;5034733;28;20217;-63
2022/05/09 13:36:56;;;;;;;9.02;2.47;;;;;;;;;;5050499;28;20218;-63
2022/05/09 13:39:22;;;;;;;7.20;2.38;;;;;;;;;;5051178;28;20207;-63
2022/05/09 13:41:47;;;;;;;9.48;2.90;;;;;;;;;;5052488;28;20676;-63
2022/05/09 13:44:18;;;;;;;10.68;3.03;;;;;;;;;;5051688;28;20717;-63
2022/05/09 13:46:44;;;;;;;7.28;2.72;;;;;;;;;;5034363;28;20302;-64
2022/05/09 13:49:16;;;;;;;8.93;2.78;;;;;;;;;;5033961;28;20294;-63
2022/05/09 13:51:43;;;;;;;8.10;2.75;;;;;;;;;;5034312;28;20268;-62
2022/05/09 13:54:09;;;;;;;8.15;3.30;;;;;;;;;;5033677;28;20217;-64
2022/05/09 13:56:35;;;;;;;7.10;2.90;;;;;;;;;;5052168;28;20628;-64
2022/05/09 13:59:01;;;;;;;8.60;2.85;;;;;;;;;;5032807;28;20223;-63
2022/05/09 14:01:27;;;;;;;9.60;2.88;;;;;;;;;;5031750;28;20238;-64
2022/05/09 14:03:53;;;;;;;7.10;2.72;;;;;;;;;;5029425;28;20231;-64
2022/05/09 14:06:21;;;;;;;10.85;3.00;;;;;;;;;;5028943;28;20216;-63
2022/05/09 14:08:47;;;;;;;8.23;2.70;;;;;;;;;;5028900;28;20704;-64
2022/05/09 14:11:12;;;;;;;7.68;2.97;;;;;;;;;;5051377;28;20214;-65
2022/05/09 14:13:48;;;;;;;12.77;2.70;;;;;;;;;;5035546;28;20211;-63
2022/05/09 14:16:17;;;;;;;7.22;2.45;;;;;;;;;;5051516;28;20659;-64
2022/05/09 14:18:43;;;;;;;8.40;2.88;;;;;;;;;;5036216;28;20256;-65
2022/05/09 14:21:15;;;;;;;7.55;2.95;;;;;;;;;;5033664;28;20297;-64
2022/05/09 14:23:47;;;;;;;8.40;3.10;;;;;;;;;;5055332;28;20219;-64
2022/05/09 14:31:52;;;;;;;7.93;2.65;;;;;;;;;;5040142;28;20698;-63
2022/05/09 14:34:21;;;;;;;7.53;2.63;;;;;;;;;;5054313;28;20365;-63
2022/05/09 14:36:47;;;;;;;12.60;3.30;;;;;;;;;;5054791;28;20210;-63
2022/05/09 14:39:24;;;;;;;9.52;2.80;;;;;;;;;;5055484;28;20246;-63
2022/05/09 14:41:50;;;;;;;9.38;2.28;;;;;;;;;;5054824;28;20306;-65
2022/05/09 14:44:15;;;;;;;6.65;2.80;;;;;;;;;;5036875;28;20310;-64
2022/05/09 14:46:52;;;;;;;9.35;2.50;;;;;;;;;;5055283;28;20223;-63
2022/05/09 14:49:18;;;;;;;7.50;2.72;;;;;;;;;;5037900;28;20577;-65
2022/05/09 14:51:46;;;;;;;6.47;2.67;;;;;;;;;;5055501;28;20272;-64
2022/05/09 14:54:11;;;;;;;11.10;3.15;;;;;;;;;;5054667;28;20216;-64